Terminal Aerodrome Forecast
Issued by NWS

Current Version | Previous Version | Text Only | Print | Product List | Glossary On
Versions: 1 2 3 4 5 6 7 8 9 10 11 12 13
364
FTUS44 KTSA 181120
TAFXNA
TAF
KXNA 181120Z 1812/1912 22014G21KT P6SM SCT250
     FM181500 31022G31KT P6SM VCSH BKN035
     FM181900 32018G28KT P6SM BKN050
     FM190000 32009KT P6SM SKC=

USA.gov is the U.S. government's official web portal to all federal, state and local government web resources and services.